createdAt,value
2022-12-31T00:01:16.218Z,100559.34
2022-12-31T00:03:44.982Z,100555.63
2022-12-31T00:06:25.590Z,100558.72
2022-12-31T00:08:55.114Z,100554.41
2022-12-31T00:11:23.640Z,100552.66
2022-12-31T00:13:51.639Z,100559.63
2022-12-31T00:16:22.380Z,100560.66
2022-12-31T00:18:52.848Z,100565.72
2022-12-31T00:21:21.687Z,100568.44
2022-12-31T00:23:49.644Z,100569.91
2022-12-31T00:26:24.965Z,100583.59
2022-12-31T00:28:53.787Z,100583.94
2022-12-31T00:31:23.971Z,100586.28
2022-12-31T00:33:52.132Z,100585.09
2022-12-31T00:36:26.178Z,100592.38
2022-12-31T00:38:55.703Z,100598.22
2022-12-31T00:41:24.372Z,100587.09
2022-12-31T00:43:51.879Z,100581.81
2022-12-31T00:46:19.682Z,100582.16
2022-12-31T00:48:47.962Z,100583.72
2022-12-31T00:51:17.710Z,100589.13
2022-12-31T00:53:45.806Z,100589.41
2022-12-31T00:56:19.235Z,100598.19
2022-12-31T00:58:46.840Z,100599.47
2022-12-31T01:01:19.054Z,100607.81
2022-12-31T01:03:47.835Z,100599.59
2022-12-31T01:06:16.601Z,100601.44
2022-12-31T01:08:44.531Z,100595.19
2022-12-31T01:11:19.064Z,100599.75
2022-12-31T01:13:49.786Z,100598.25
2022-12-31T01:16:18.656Z,100585.75
2022-12-31T01:18:46.202Z,100602.53
2022-12-31T01:21:15.968Z,100601.62
2022-12-31T01:23:43.451Z,100610.47
2022-12-31T01:26:13.036Z,100608.78
2022-12-31T01:28:41.127Z,100607.94
2022-12-31T01:31:11.230Z,100604.59
2022-12-31T01:33:39.244Z,100610.19
2022-12-31T01:36:13.484Z,100613.34
2022-12-31T01:38:41.803Z,100624.34
2022-12-31T01:41:14.806Z,100610.44
2022-12-31T01:43:56.584Z,100609.25
2022-12-31T01:46:36.803Z,100612.41
2022-12-31T01:49:24.364Z,100618.25
2022-12-31T01:51:57.963Z,100611.47
2022-12-31T01:54:26.230Z,100614.62
2022-12-31T01:56:54.481Z,100608.09
2022-12-31T01:59:23.628Z,100601.53
2022-12-31T02:01:54.051Z,100601.06
2022-12-31T02:04:24.342Z,100613.59
2022-12-31T02:07:02.189Z,100613.34
2022-12-31T02:09:30.784Z,100619.25
2022-12-31T02:11:58.260Z,100617.81
2022-12-31T02:14:28.562Z,100614.16
2022-12-31T02:17:02.295Z,100620.03
2022-12-31T02:19:44.222Z,100627.81
2022-12-31T02:22:53.942Z,100624.03
2022-12-31T02:25:40.105Z,100632.81
2022-12-31T02:28:54.502Z,100627.34
2022-12-31T02:31:27.108Z,100619.09
2022-12-31T02:33:58.207Z,100616.78
2022-12-31T02:36:28.567Z,100625.38
2022-12-31T02:38:57.803Z,100621.50
2022-12-31T02:41:44.124Z,100621.19
2022-12-31T02:44:21.052Z,100630.19
2022-12-31T02:47:09.105Z,100631.50
2022-12-31T02:49:47.420Z,100630.22
2022-12-31T02:52:22.567Z,100627.09
2022-12-31T02:54:59.387Z,100627.41
2022-12-31T02:57:30.896Z,100620.47
2022-12-31T03:00:20.823Z,100609.78
2022-12-31T03:02:49.116Z,100611.25
2022-12-31T03:05:20.115Z,100603.75
2022-12-31T03:07:48.097Z,100598.81
2022-12-31T03:10:15.662Z,100609.25
2022-12-31T03:12:47.599Z,100609.06
2022-12-31T03:15:21.982Z,100612.53
2022-12-31T03:18:02.463Z,100605.53
2022-12-31T03:20:54.967Z,100590.72
2022-12-31T03:23:28.869Z,100612.06
2022-12-31T03:25:58.006Z,100612.31
2022-12-31T03:28:28.744Z,100599.16
2022-12-31T03:30:58.956Z,100596.78
2022-12-31T03:33:31.203Z,100604.00
2022-12-31T03:35:58.745Z,100595.50
2022-12-31T03:38:27.359Z,100592.69
2022-12-31T03:40:54.788Z,100595.56
2022-12-31T03:43:22.559Z,100595.06
2022-12-31T03:45:51.751Z,100611.34
2022-12-31T03:48:21.036Z,100606.31
2022-12-31T03:50:48.650Z,100601.66
2022-12-31T03:53:16.530Z,100602.38
2022-12-31T03:55:44.566Z,100598.78
2022-12-31T03:58:12.566Z,100600.25
2022-12-31T04:00:40.465Z,100604.31
2022-12-31T04:03:08.240Z,100588.88
2022-12-31T04:05:35.667Z,100586.63
2022-12-31T04:08:03.092Z,100592.56
2022-12-31T04:10:48.787Z,100597.44
2022-12-31T04:13:16.659Z,100594.34
2022-12-31T04:15:44.506Z,100590.81
2022-12-31T04:18:12.637Z,100588.09
2022-12-31T04:20:40.761Z,100598.84
2022-12-31T04:23:08.606Z,100613.22
2022-12-31T04:25:36.080Z,100614.84
2022-12-31T04:28:03.622Z,100627.50
2022-12-31T04:30:31.413Z,100623.53
2022-12-31T04:32:58.863Z,100619.97
2022-12-31T04:35:26.294Z,100624.47
2022-12-31T04:37:54.086Z,100621.84
2022-12-31T04:40:23.325Z,100624.97
2022-12-31T04:42:50.700Z,100623.56
2022-12-31T04:45:18.828Z,100642.50
2022-12-31T04:47:46.270Z,100638.69
2022-12-31T04:50:13.814Z,100638.44
2022-12-31T04:52:43.007Z,100632.03
2022-12-31T04:55:11.252Z,100645.41
2022-12-31T04:57:39.012Z,100639.28
2022-12-31T05:00:08.030Z,100646.78
2022-12-31T05:02:35.745Z,100651.97
2022-12-31T05:05:03.573Z,100657.13
2022-12-31T05:07:31.636Z,100653.63
2022-12-31T05:09:59.200Z,100665.03
2022-12-31T05:12:26.926Z,100679.16
2022-12-31T05:14:54.754Z,100683.66
2022-12-31T05:17:22.213Z,100681.53
2022-12-31T05:19:49.792Z,100677.50
2022-12-31T05:22:29.544Z,100682.62
2022-12-31T05:25:01.195Z,100683.25
2022-12-31T05:27:31.347Z,100678.84
2022-12-31T05:29:59.922Z,100674.78
2022-12-31T05:32:27.740Z,100695.59
2022-12-31T05:34:55.993Z,100696.97
2022-12-31T05:37:23.694Z,100691.53
2022-12-31T05:39:51.449Z,100697.31
2022-12-31T05:42:19.161Z,100705.94
2022-12-31T05:44:47.048Z,100709.03
2022-12-31T05:47:15.258Z,100715.63
2022-12-31T05:49:47.111Z,100713.16
2022-12-31T05:52:14.489Z,100708.78
2022-12-31T05:54:42.297Z,100719.41
2022-12-31T05:57:10.310Z,100722.22
2022-12-31T05:59:37.945Z,100730.09
2022-12-31T06:02:05.653Z,100720.25
2022-12-31T06:04:34.277Z,100727.47
2022-12-31T06:07:01.888Z,100715.72
2022-12-31T06:09:29.475Z,100730.78
2022-12-31T06:11:57.325Z,100721.94
2022-12-31T06:14:25.267Z,100721.78
2022-12-31T06:16:53.162Z,100734.06
2022-12-31T06:19:21.090Z,100734.09
2022-12-31T06:21:48.691Z,100724.84
2022-12-31T06:24:16.301Z,100718.56
2022-12-31T06:26:44.388Z,100725.53
2022-12-31T06:29:12.039Z,100726.78
2022-12-31T06:31:39.446Z,100722.97
2022-12-31T06:34:07.842Z,100723.75
2022-12-31T06:36:35.410Z,100736.59
2022-12-31T06:39:03.104Z,100738.41
2022-12-31T06:41:31.439Z,100725.06
2022-12-31T06:43:59.431Z,100732.75
2022-12-31T06:46:27.002Z,100730.97
2022-12-31T06:48:55.125Z,100729.09
2022-12-31T06:51:23.817Z,100723.22
2022-12-31T06:53:51.952Z,100723.41
2022-12-31T06:56:26.522Z,100730.00
2022-12-31T06:58:58.357Z,100728.31
2022-12-31T07:01:58.149Z,100736.81
2022-12-31T07:04:40.698Z,100733.84
2022-12-31T07:07:10.517Z,100742.88
2022-12-31T07:09:43.861Z,100742.31
2022-12-31T07:12:35.728Z,100743.13
2022-12-31T07:15:15.012Z,100748.34
2022-12-31T07:17:49.141Z,100742.69
2022-12-31T07:20:18.740Z,100760.38
2022-12-31T07:22:46.916Z,100758.69
2022-12-31T07:25:18.918Z,100764.16
2022-12-31T07:27:59.897Z,100759.69
2022-12-31T07:30:40.187Z,100771.09
2022-12-31T07:33:21.868Z,100754.81
2022-12-31T07:36:04.960Z,100763.91
2022-12-31T07:39:02.087Z,100759.81
2022-12-31T07:41:44.918Z,100774.47
2022-12-31T07:44:25.207Z,100779.69
2022-12-31T07:46:58.394Z,100783.91
2022-12-31T07:49:28.748Z,100774.84
2022-12-31T07:51:57.168Z,100771.94
2022-12-31T07:54:24.734Z,100780.22
2022-12-31T07:56:52.698Z,100787.66
2022-12-31T07:59:39.059Z,100782.09
2022-12-31T08:02:15.899Z,100775.59
2022-12-31T08:05:02.812Z,100789.41
2022-12-31T08:07:49.788Z,100800.88
2022-12-31T08:10:34.280Z,100796.56
2022-12-31T08:13:04.282Z,100810.16
2022-12-31T08:15:32.426Z,100815.66
2022-12-31T08:18:00.295Z,100804.91
2022-12-31T08:20:30.028Z,100804.41
2022-12-31T08:23:14.494Z,100818.31
2022-12-31T08:26:06.951Z,100816.66
2022-12-31T08:28:53.342Z,100835.00
2022-12-31T08:31:23.298Z,100831.84
2022-12-31T08:33:59.344Z,100851.84
2022-12-31T08:36:32.653Z,100858.19
2022-12-31T08:39:17.359Z,100866.78
2022-12-31T08:41:46.687Z,100869.16
2022-12-31T08:44:36.760Z,100872.69
2022-12-31T08:47:38.913Z,100872.66
2022-12-31T08:50:12.644Z,100874.25
2022-12-31T08:52:40.471Z,100855.56
2022-12-31T08:55:12.471Z,100859.63
2022-12-31T08:58:19.087Z,100866.47
2022-12-31T09:00:50.313Z,100889.03
2022-12-31T09:03:42.773Z,100893.34
2022-12-31T09:06:17.084Z,100887.00
2022-12-31T09:08:44.747Z,100890.47
2022-12-31T09:11:23.132Z,100866.50
2022-12-31T09:13:57.403Z,100861.41
2022-12-31T09:16:40.932Z,100868.75
2022-12-31T09:19:11.692Z,100855.13
2022-12-31T09:21:44.428Z,100842.41
2022-12-31T09:24:12.751Z,100853.97
2022-12-31T09:26:48.963Z,100838.38
2022-12-31T09:29:35.378Z,100837.47
2022-12-31T09:32:12.088Z,100837.16
2022-12-31T09:35:00.202Z,100827.78
2022-12-31T09:37:37.859Z,100824.66
2022-12-31T09:40:50.610Z,100828.28
2022-12-31T09:43:30.812Z,100822.94
2022-12-31T09:46:26.559Z,100819.91
2022-12-31T09:49:09.705Z,100822.31
2022-12-31T09:52:22.275Z,100821.06
2022-12-31T09:54:56.400Z,100817.44
2022-12-31T09:57:40.379Z,100813.34
2022-12-31T10:00:22.714Z,100802.34
2022-12-31T10:03:08.675Z,100784.50
2022-12-31T10:05:49.749Z,100798.63
2022-12-31T10:08:30.044Z,100786.81
2022-12-31T10:10:59.718Z,100794.50
2022-12-31T10:13:49.122Z,100796.41
2022-12-31T10:16:44.156Z,100805.06
2022-12-31T10:19:24.466Z,100809.50
2022-12-31T10:21:55.061Z,100798.91
2022-12-31T10:24:43.090Z,100796.06
2022-12-31T10:27:40.025Z,100788.78
2022-12-31T10:30:18.728Z,100806.22
2022-12-31T10:32:55.417Z,100812.44
2022-12-31T10:35:44.967Z,100793.09
2022-12-31T10:38:31.125Z,100789.31
2022-12-31T10:41:33.335Z,100793.25
2022-12-31T10:44:12.979Z,100781.72
2022-12-31T10:46:50.033Z,100795.38
2022-12-31T10:49:42.876Z,100796.97
2022-12-31T10:52:41.513Z,100787.19
2022-12-31T10:55:34.400Z,100813.19
2022-12-31T10:58:36.146Z,100807.47
2022-12-31T11:01:33.939Z,100804.44
2022-12-31T11:04:29.836Z,100821.53
2022-12-31T11:07:26.862Z,100791.31
2022-12-31T11:10:13.099Z,100766.94
2022-12-31T11:13:05.716Z,100781.91
2022-12-31T11:15:38.621Z,100797.31
2022-12-31T11:18:20.016Z,100782.66
2022-12-31T11:20:55.981Z,100783.50
2022-12-31T11:24:03.238Z,100774.72
2022-12-31T11:27:09.059Z,100768.03
2022-12-31T11:29:56.134Z,100771.03
2022-12-31T11:32:52.553Z,100765.31
2022-12-31T11:35:25.269Z,100768.97
2022-12-31T11:38:04.778Z,100775.84
2022-12-31T11:40:35.253Z,100764.69
2022-12-31T11:43:28.145Z,100750.84
2022-12-31T11:45:55.721Z,100755.78
2022-12-31T11:48:59.640Z,100740.84
2022-12-31T11:51:43.091Z,100742.69
2022-12-31T11:54:51.219Z,100740.56
2022-12-31T11:57:29.842Z,100749.56
2022-12-31T12:00:00.884Z,100762.37
2022-12-31T12:02:44.805Z,100775.47
2022-12-31T12:05:18.059Z,100768.34
2022-12-31T12:08:06.827Z,100790.47
2022-12-31T12:10:54.001Z,100779.31
2022-12-31T12:13:26.714Z,100773.56
2022-12-31T12:15:57.973Z,100782.28
2022-12-31T12:18:36.213Z,100775.34
2022-12-31T12:21:09.993Z,100770.69
2022-12-31T12:23:38.244Z,100769.75
2022-12-31T12:26:07.149Z,100772.28
2022-12-31T12:28:44.700Z,100774.56
2022-12-31T12:31:22.095Z,100769.41
2022-12-31T12:33:51.518Z,100781.28
2022-12-31T12:36:34.101Z,100780.47
2022-12-31T12:39:04.555Z,100765.97
2022-12-31T12:41:32.512Z,100762.13
2022-12-31T12:44:08.659Z,100767.38
2022-12-31T12:46:49.575Z,100768.44
2022-12-31T12:49:25.041Z,100757.97
2022-12-31T12:52:01.876Z,100756.91
2022-12-31T12:54:38.507Z,100762.53
2022-12-31T12:57:38.661Z,100761.50
2022-12-31T13:00:18.780Z,100764.00
2022-12-31T13:03:07.815Z,100750.78
2022-12-31T13:06:23.721Z,100758.34
2022-12-31T13:09:17.497Z,100749.94
2022-12-31T13:11:56.028Z,100752.78
2022-12-31T13:14:56.553Z,100756.97
2022-12-31T13:17:23.871Z,100756.22
2022-12-31T13:20:27.558Z,100768.34
2022-12-31T13:23:22.223Z,100768.34
2022-12-31T13:26:08.868Z,100774.91
2022-12-31T13:28:39.063Z,100776.13
2022-12-31T13:31:12.637Z,100772.00
2022-12-31T13:33:52.747Z,100772.09
2022-12-31T13:36:22.017Z,100781.09
2022-12-31T13:38:52.014Z,100768.38
2022-12-31T13:41:41.448Z,100766.72
2022-12-31T13:44:08.792Z,100776.00
2022-12-31T13:46:47.309Z,100783.78
2022-12-31T13:49:31.583Z,100784.66
2022-12-31T13:52:07.403Z,100781.31
2022-12-31T13:54:41.170Z,100784.97
2022-12-31T13:57:20.610Z,100775.63
2022-12-31T13:59:52.026Z,100781.41
2022-12-31T14:02:35.699Z,100792.81
2022-12-31T14:05:14.197Z,100800.78
2022-12-31T14:07:49.287Z,100793.06
2022-12-31T14:10:21.602Z,100783.50
2022-12-31T14:12:54.148Z,100783.03
2022-12-31T14:15:26.471Z,100781.09
2022-12-31T14:18:00.039Z,100783.72
2022-12-31T14:20:42.216Z,100784.75
2022-12-31T14:23:31.593Z,100787.34
2022-12-31T14:26:06.363Z,100790.59
2022-12-31T14:29:02.846Z,100783.72
2022-12-31T14:32:11.896Z,100795.34
2022-12-31T14:35:24.085Z,100795.88
2022-12-31T14:38:16.671Z,100799.69
2022-12-31T14:41:00.735Z,100811.47
2022-12-31T14:43:40.845Z,100807.50
2022-12-31T14:46:32.008Z,100793.59
2022-12-31T14:49:15.232Z,100794.97
2022-12-31T14:51:42.980Z,100800.09
2022-12-31T14:54:29.130Z,100807.72
2022-12-31T14:56:56.805Z,100813.41
2022-12-31T14:59:32.206Z,100813.47
2022-12-31T15:02:01.968Z,100802.06
2022-12-31T15:04:45.412Z,100801.03
2022-12-31T15:07:31.476Z,100812.19
2022-12-31T15:10:11.637Z,100808.84
2022-12-31T15:12:45.179Z,100819.31
2022-12-31T15:15:20.461Z,100825.19
2022-12-31T15:18:00.698Z,100834.09
2022-12-31T15:20:41.187Z,100824.63
2022-12-31T15:23:42.411Z,100811.47
2022-12-31T15:26:34.792Z,100803.19
2022-12-31T15:29:05.632Z,100806.53
2022-12-31T15:31:35.289Z,100808.06
2022-12-31T15:34:05.737Z,100801.19
2022-12-31T15:36:41.347Z,100817.94
2022-12-31T15:39:11.950Z,100814.38
2022-12-31T15:42:10.416Z,100822.63
2022-12-31T15:44:52.059Z,100816.25
2022-12-31T15:47:36.777Z,100830.50
2022-12-31T15:50:07.248Z,100814.69
2022-12-31T15:52:49.187Z,100811.34
2022-12-31T15:55:42.596Z,100812.19
2022-12-31T15:58:16.863Z,100832.78
2022-12-31T16:01:02.239Z,100818.19
2022-12-31T16:03:31.303Z,100815.47
2022-12-31T16:06:04.695Z,100818.62
2022-12-31T16:08:34.731Z,100826.63
2022-12-31T16:11:05.431Z,100824.69
2022-12-31T16:13:35.383Z,100835.19
2022-12-31T16:16:29.740Z,100831.56
2022-12-31T16:18:58.301Z,100825.72
2022-12-31T16:21:36.926Z,100830.37
2022-12-31T16:24:28.977Z,100829.53
2022-12-31T16:27:03.515Z,100814.25
2022-12-31T16:29:31.456Z,100830.25
2022-12-31T16:31:58.971Z,100816.03
2022-12-31T16:34:27.641Z,100819.41
2022-12-31T16:36:58.013Z,100809.53
2022-12-31T16:39:40.708Z,100825.22
2022-12-31T16:42:26.353Z,100825.19
2022-12-31T16:44:56.038Z,100828.97
2022-12-31T16:47:25.221Z,100836.09
2022-12-31T16:50:05.709Z,100838.81
2022-12-31T16:52:40.423Z,100832.88
2022-12-31T16:55:09.955Z,100827.78
2022-12-31T16:57:38.182Z,100819.50
2022-12-31T17:00:07.462Z,100822.88
2022-12-31T17:02:38.816Z,100819.50
2022-12-31T17:05:19.312Z,100819.38
2022-12-31T17:07:46.745Z,100825.19
2022-12-31T17:10:22.280Z,100821.22
2022-12-31T17:13:30.899Z,100832.97
2022-12-31T17:15:48.817Z,100837.13
2022-12-31T17:18:21.560Z,100827.66
2022-12-31T17:20:51.600Z,100824.34
2022-12-31T17:23:25.147Z,100826.03
2022-12-31T17:26:13.358Z,100822.38
2022-12-31T17:28:52.142Z,100821.13
2022-12-31T17:31:39.163Z,100828.31
2022-12-31T17:34:12.520Z,100831.19
2022-12-31T17:37:14.428Z,100840.25
2022-12-31T17:39:50.356Z,100849.44
2022-12-31T17:42:35.831Z,100848.81
2022-12-31T17:45:06.951Z,100855.47
2022-12-31T17:47:39.675Z,100860.72
2022-12-31T17:50:19.400Z,100856.34
2022-12-31T17:52:53.055Z,100857.41
2022-12-31T17:55:21.108Z,100855.13
2022-12-31T17:57:55.063Z,100853.09
2022-12-31T18:00:25.689Z,100853.72
2022-12-31T18:02:53.793Z,100851.50
2022-12-31T18:05:23.500Z,100853.38
2022-12-31T18:07:51.763Z,100850.66
2022-12-31T18:10:24.187Z,100857.78
2022-12-31T18:12:51.817Z,100849.38
2022-12-31T18:15:22.578Z,100847.88
2022-12-31T18:17:50.175Z,100843.53
2022-12-31T18:20:18.081Z,100846.66
2022-12-31T18:22:46.021Z,100851.25
2022-12-31T18:25:19.709Z,100855.34
2022-12-31T18:27:48.460Z,100856.47
2022-12-31T18:30:18.916Z,100855.91
2022-12-31T18:32:46.927Z,100847.44
2022-12-31T18:36:06.542Z,100847.47
2022-12-31T18:38:16.866Z,100848.62
2022-12-31T18:40:51.155Z,100850.44
2022-12-31T18:43:19.713Z,100862.09
2022-12-31T18:45:47.909Z,100863.38
2022-12-31T18:48:16.030Z,100863.31
2022-12-31T18:50:44.442Z,100856.97
2022-12-31T18:53:17.997Z,100859.81
2022-12-31T18:55:56.974Z,100868.50
2022-12-31T18:58:24.623Z,100879.91
2022-12-31T19:00:53.292Z,100892.09
2022-12-31T19:03:23.578Z,100891.06
2022-12-31T19:05:52.073Z,100888.44
2022-12-31T19:08:21.012Z,100891.47
2022-12-31T19:10:49.957Z,100880.72
2022-12-31T19:13:19.584Z,100883.91
2022-12-31T19:15:52.581Z,100890.53
2022-12-31T19:18:21.119Z,100885.88
2022-12-31T19:20:49.079Z,100897.13
2022-12-31T19:23:18.973Z,100896.66
2022-12-31T19:25:47.450Z,100892.28
2022-12-31T19:28:18.353Z,100891.63
2022-12-31T19:30:45.943Z,100889.31
2022-12-31T19:33:15.438Z,100891.78
2022-12-31T19:35:44.136Z,100891.19
2022-12-31T19:38:21.835Z,100893.06
2022-12-31T19:40:50.190Z,100891.56
2022-12-31T19:43:19.712Z,100892.19
2022-12-31T19:45:47.745Z,100892.88
2022-12-31T19:48:17.634Z,100896.62
2022-12-31T19:50:47.418Z,100887.50
2022-12-31T19:53:22.218Z,100895.22
2022-12-31T19:55:50.884Z,100881.37
2022-12-31T19:58:21.061Z,100882.44
2022-12-31T20:00:55.615Z,100876.97
2022-12-31T20:03:24.859Z,100878.06
2022-12-31T20:06:03.229Z,100875.62
2022-12-31T20:08:31.035Z,100875.50
2022-12-31T20:10:59.080Z,100884.09
2022-12-31T20:13:27.200Z,100888.37
2022-12-31T20:15:54.916Z,100868.78
2022-12-31T20:18:23.306Z,100868.09
2022-12-31T20:20:55.746Z,100869.91
2022-12-31T20:23:23.660Z,100864.50
2022-12-31T20:26:01.235Z,100865.56
2022-12-31T20:28:29.786Z,100865.75
2022-12-31T20:30:57.521Z,100863.97
2022-12-31T20:33:25.023Z,100865.75
2022-12-31T20:35:53.235Z,100871.06
2022-12-31T20:38:20.636Z,100862.28
2022-12-31T20:40:48.067Z,100867.03
2022-12-31T20:43:15.919Z,100869.81
2022-12-31T20:45:44.799Z,100856.84
2022-12-31T20:48:12.446Z,100862.25
2022-12-31T20:50:40.246Z,100858.06
2022-12-31T20:53:07.631Z,100858.03
2022-12-31T20:55:37.800Z,100857.44
2022-12-31T20:58:06.405Z,100863.34
2022-12-31T21:00:33.800Z,100869.97
2022-12-31T21:03:14.320Z,100873.72
2022-12-31T21:05:50.782Z,100863.41
2022-12-31T21:08:18.806Z,100864.31
2022-12-31T21:10:50.226Z,100860.66
2022-12-31T21:13:23.130Z,100856.78
2022-12-31T21:15:55.214Z,100866.53
2022-12-31T21:18:23.300Z,100870.03
2022-12-31T21:20:52.623Z,100873.03
2022-12-31T21:23:20.863Z,100867.97
2022-12-31T21:25:50.035Z,100874.91
2022-12-31T21:28:17.692Z,100876.28
2022-12-31T21:30:45.436Z,100880.19
2022-12-31T21:33:13.399Z,100884.66
2022-12-31T21:35:45.806Z,100884.50
2022-12-31T21:38:20.035Z,100888.91
2022-12-31T21:40:50.452Z,100895.25
2022-12-31T21:43:18.358Z,100894.09
2022-12-31T21:45:46.432Z,100896.88
2022-12-31T21:48:20.702Z,100904.78
2022-12-31T21:50:50.506Z,100897.09
2022-12-31T21:53:24.168Z,100895.28
2022-12-31T21:56:09.591Z,100896.19
2022-12-31T21:58:40.866Z,100894.41
2022-12-31T22:01:40.083Z,100900.53
2022-12-31T22:04:28.235Z,100911.16
2022-12-31T22:06:55.745Z,100911.09
2022-12-31T22:09:23.532Z,100912.88
2022-12-31T22:11:50.998Z,100909.44
2022-12-31T22:14:18.431Z,100906.69
2022-12-31T22:16:46.259Z,100907.84
2022-12-31T22:19:15.871Z,100910.31
2022-12-31T22:21:43.372Z,100909.44
2022-12-31T22:24:12.311Z,100909.69
2022-12-31T22:26:44.788Z,100907.72
2022-12-31T22:29:15.104Z,100899.91
2022-12-31T22:31:42.794Z,100905.44
2022-12-31T22:34:10.691Z,100910.09
2022-12-31T22:36:38.688Z,100907.75
2022-12-31T22:39:06.361Z,100914.25
2022-12-31T22:41:34.173Z,100905.47
2022-12-31T22:44:04.843Z,100914.22
2022-12-31T22:46:36.339Z,100907.16
2022-12-31T22:49:04.785Z,100902.75
2022-12-31T22:51:55.963Z,100897.50
2022-12-31T22:54:33.049Z,100896.06
2022-12-31T22:57:07.594Z,100902.94
2022-12-31T22:59:35.302Z,100903.62
2022-12-31T23:02:03.070Z,100898.28
2022-12-31T23:04:30.513Z,100897.81
2022-12-31T23:06:58.275Z,100889.19
2022-12-31T23:09:44.734Z,100881.41
2022-12-31T23:12:12.594Z,100878.81
2022-12-31T23:14:58.898Z,100878.00
2022-12-31T23:17:45.924Z,100879.66
2022-12-31T23:20:38.285Z,100878.75
2022-12-31T23:23:10.485Z,100881.78
2022-12-31T23:25:49.181Z,100891.94
2022-12-31T23:28:19.563Z,100890.41
2022-12-31T23:30:47.036Z,100898.97
2022-12-31T23:33:20.276Z,100900.00
2022-12-31T23:35:48.333Z,100893.88
2022-12-31T23:38:17.514Z,100894.00
2022-12-31T23:40:45.276Z,100899.38
2022-12-31T23:43:20.114Z,100906.41
2022-12-31T23:45:49.468Z,100912.34
2022-12-31T23:48:17.277Z,100902.97
2022-12-31T23:50:50.787Z,100913.41
2022-12-31T23:53:19.070Z,100910.75
2022-12-31T23:55:46.701Z,100907.22
2022-12-31T23:58:14.325Z,100906.28
